Map

Track Data

SID SEASON NUMBER BASIN SUBBASIN NAME ISO_TIME NATURE LAT LON WMO_WIND WMO_PRES WMO_AGENCY TRACK_TYPE DIST2LAND LANDFALL IFLAG USA_AGENCY USA_ATCF_ID USA_LAT USA_LON USA_RECORD USA_STATUS USA_WIND USA_PRES USA_SSHS USA_R34_NE USA_R34_SE USA_R34_SW USA_R34_NW USA_R50_NE USA_R50_SE USA_R50_SW USA_R50_NW USA_R64_NE USA_R64_SE USA_R64_SW USA_R64_NW USA_POCI USA_ROCI USA_RMW USA_EYE TOKYO_LAT TOKYO_LON TOKYO_GRADE TOKYO_WIND TOKYO_PRES TOKYO_R50_DIR TOKYO_R50_LONG TOKYO_R50_SHORT TOKYO_R30_DIR TOKYO_R30_LONG TOKYO_R30_SHORT TOKYO_LAND CMA_LAT CMA_LON CMA_CAT CMA_WIND CMA_PRES HKO_LAT HKO_LON HKO_CAT HKO_WIND HKO_PRES NEWDELHI_LAT NEWDELHI_LON NEWDELHI_GRADE NEWDELHI_WIND NEWDELHI_PRES NEWDELHI_CI NEWDELHI_DP NEWDELHI_POCI REUNION_LAT REUNION_LON REUNION_TYPE REUNION_WIND REUNION_PRES REUNION_TNUM REUNION_CI REUNION_RMW REUNION_R34_NE REUNION_R34_SE REUNION_R34_SW REUNION_R34_NW REUNION_R50_NE REUNION_R50_SE REUNION_R50_SW REUNION_R50_NW REUNION_R64_NE REUNION_R64_SE REUNION_R64_SW REUNION_R64_NW BOM_LAT BOM_LON BOM_TYPE BOM_WIND BOM_PRES BOM_TNUM BOM_CI BOM_RMW BOM_R34_NE BOM_R34_SE BOM_R34_SW BOM_R34_NW BOM_R50_NE BOM_R50_SE BOM_R50_SW BOM_R50_NW BOM_R64_NE BOM_R64_SE BOM_R64_SW BOM_R64_NW BOM_ROCI BOM_POCI BOM_EYE BOM_POS_METHOD BOM_PRES_METHOD NADI_LAT NADI_LON NADI_CAT NADI_WIND NADI_PRES WELLINGTON_LAT WELLINGTON_LON WELLINGTON_WIND WELLINGTON_PRES DS824_LAT DS824_LON DS824_STAGE DS824_WIND DS824_PRES TD9636_LAT TD9636_LON TD9636_STAGE TD9636_WIND TD9636_PRES TD9635_LAT TD9635_LON TD9635_WIND TD9635_PRES TD9635_ROCI NEUMANN_LAT NEUMANN_LON NEUMANN_CLASS NEUMANN_WIND NEUMANN_PRES MLC_LAT MLC_LON MLC_CLASS MLC_WIND MLC_PRES USA_GUST BOM_GUST BOM_GUST_PER REUNION_GUST REUNION_GUST_PER USA_SEAHGT USA_SEARAD_NE USA_SEARAD_SE USA_SEARAD_SW USA_SEARAD_NW STORM_SPEED STORM_DIR
1997108N05168 1997 26 WP MM JIMMY 1997-04-18 00:00:00 NR 5.10000 168.000 main 1710 1695 O_____________ jtwc_wp WP031997 5.10000 168.000 15 -1 7 277
1997108N05168 1997 26 WP MM JIMMY 1997-04-18 03:00:00 NR 5.14003 167.660 main 1695 1686 P_____________ WP031997 5.14003 167.660 15 -1 7 278
1997108N05168 1997 26 WP MM JIMMY 1997-04-18 06:00:00 NR 5.20000 167.300 main 1686 1676 O_____________ jtwc_wp WP031997 5.20000 167.300 15 -1 8 281
1997108N05168 1997 26 WP MM JIMMY 1997-04-18 09:00:00 NR 5.29249 166.908 main 1677 1669 P_____________ WP031997 5.29249 166.908 15 -1 8 284
1997108N05168 1997 26 WP MM JIMMY 1997-04-18 12:00:00 NR 5.40000 166.500 main 1670 1662 O_____________ jtwc_wp WP031997 5.40000 166.500 15 -1 8 285
1997108N05168 1997 26 WP MM JIMMY 1997-04-18 15:00:00 NR 5.49996 166.107 main 1664 1657 P_____________ WP031997 5.49996 166.107 15 -1 8 284
1997108N05168 1997 26 WP MM JIMMY 1997-04-18 18:00:00 NR 5.60000 165.700 main 1660 1649 O_____________ jtwc_wp WP031997 5.60000 165.700 15 -1 9 282
1997108N05168 1997 26 WP MM JIMMY 1997-04-18 21:00:00 NR 5.68501 165.242 main 1653 1646 P_____________ WP031997 5.68501 165.242 15 -1 9 283
1997108N05168 1997 26 WP MM JIMMY 1997-04-19 00:00:00 NR 5.80000 164.800 main 1647 1642 O_____________ jtwc_wp WP031997 5.80000 164.800 15 -1 9 290
1997108N05168 1997 26 WP MM JIMMY 1997-04-19 03:00:00 NR 5.98495 164.435 main 1650 1645 P_____________ WP031997 5.98495 164.435 15 -1 8 300
1997108N05168 1997 26 WP MM JIMMY 1997-04-19 06:00:00 NR 6.20000 164.100 main 1657 1651 O_____________ jtwc_wp WP031997 6.20000 164.100 15 -1 8 302
1997108N05168 1997 26 WP MM JIMMY 1997-04-19 09:00:00 NR 6.40746 163.757 main 1656 1646 P_____________ WP031997 6.40746 163.757 15 -1 8 300
1997108N05168 1997 26 WP MM JIMMY 1997-04-19 12:00:00 NR 6.60000 163.400 main 1649 1634 O_____________ jtwc_wp WP031997 6.60000 163.400 15 -1 8 295
1997108N05168 1997 26 WP MM JIMMY 1997-04-19 15:00:00 NR 6.75750 163.000 main 1643 1627 P_____________ WP031997 6.75750 163.000 15 -1 9 291
1997108N05168 1997 26 WP MM JIMMY 1997-04-19 18:00:00 NR 6.90000 162.600 main 1627 1614 O_____________ jtwc_wp WP031997 6.90000 162.600 15 -1 8 292
1997108N05168 1997 26 WP MM JIMMY 1997-04-19 21:00:00 NR 7.05746 162.242 main 1615 1601 P_____________ WP031997 7.05746 162.242 15 -1 8 293
1997108N05168 1997 26 WP MM JIMMY 1997-04-20 00:00:00 NR 7.20000 161.900 main 1602 1590 O_____________ jtwc_wp WP031997 7.20000 161.900 15 -1 7 290
1997108N05168 1997 26 WP MM JIMMY 1997-04-20 03:00:00 NR 7.31500 161.535 main 1584 1572 P_____________ WP031997 7.31500 161.535 15 -1 7 286
1997108N05168 1997 26 WP MM JIMMY 1997-04-20 06:00:00 NR 7.40000 161.200 main 1572 1559 O_____________ jtwc_wp WP031997 7.40000 161.200 15 -1 6 283
1997108N05168 1997 26 WP MM JIMMY 1997-04-20 09:00:00 NR 7.45746 160.935 main 1562 1548 P_____________ WP031997 7.45746 160.935 17 -1 5 281
1997108N05168 1997 26 WP MM JIMMY 1997-04-20 12:00:00 NR 7.50000 160.700 main 1548 1534 O_____________ jtwc_wp WP031997 7.50000 160.700 20 -1 5 280
1997108N05168 1997 26 WP MM JIMMY 1997-04-20 15:00:00 NR 7.54249 160.450 main 1528 1523 P_____________ WP031997 7.54249 160.450 20 -1 5 281
1997108N05168 1997 26 WP MM JIMMY 1997-04-20 18:00:00 NR 7.60000 160.200 main 1523 1510 O_____________ jtwc_wp WP031997 7.60000 160.200 20 -1 5 286
1997108N05168 1997 26 WP MM JIMMY 1997-04-20 21:00:00 NR 7.68500 159.942 main 1513 1506 P_____________ WP031997 7.68500 159.942 20 -1 5 292
1997108N05168 1997 26 WP MM JIMMY 1997-04-21 00:00:00 NR 7.80000 159.700 main 1509 1503 O_____________ jtwc_wp WP031997 7.80000 159.700 20 -1 5 299
1997108N05168 1997 26 WP MM JIMMY 1997-04-21 03:00:00 NR 7.92747 159.500 main 1506 1506 P_____________ WP031997 7.92747 159.500 22 -1 5 307
1997108N05168 1997 26 WP MM JIMMY 1997-04-21 06:00:00 NR 8.10000 159.300 main 1512 1510 O_____________ jtwc_wp WP031997 8.10000 159.300 25 -1 6 312
1997108N05168 1997 26 WP MM JIMMY 1997-04-21 09:00:00 NR 8.31249 159.065 main 1520 1514 P_____________ WP031997 8.31249 159.065 25 -1 7 315
1997108N05168 1997 26 WP MM JIMMY 1997-04-21 12:00:00 NR 8.60000 158.800 main 1531 1531 O_____________ jtwc_wp WP031997 8.60000 158.800 25 -1 9 320
1997108N05168 1997 26 WP MM JIMMY 1997-04-21 15:00:00 NR 8.97000 158.507 main 1552 1552 P_____________ WP031997 8.97000 158.507 27 -1 10 323
1997108N05168 1997 26 WP MM JIMMY 1997-04-21 18:00:00 NR 9.40000 158.200 main 1575 1575 O_____________ jtwc_wp WP031997 9.40000 158.200 30 -1 11 325
1997108N05168 1997 26 WP MM JIMMY 1997-04-21 21:00:00 NR 9.83500 157.892 main 1600 1600 P_____________ WP031997 9.83500 157.892 30 -1 11 327
1997108N05168 1997 26 WP MM JIMMY 1997-04-22 00:00:00 NR 10.3000 157.600 main 1634 1634 O_____________ jtwc_wp WP031997 10.3000 157.600 30 -1 11 331
1997108N05168 1997 26 WP MM JIMMY 1997-04-22 03:00:00 NR 10.7924 157.350 main 1670 1670 P_____________ WP031997 10.7924 157.350 32 -1 11 334
1997108N05168 1997 26 WP MM JIMMY 1997-04-22 06:00:00 NR 11.3000 157.100 main 1712 1712 O_____________ jtwc_wp WP031997 11.3000 157.100 35 0 11 334
1997108N05168 1997 26 WP MM JIMMY 1997-04-22 09:00:00 NR 11.8074 156.837 main 1750 1750 P_____________ WP031997 11.8074 156.837 35 0 19 326
1997108N05168 1997 26 WP MM JIMMY 1997-04-22 12:00:00 TS 12.9000 156.000 1008 tokyo main 1836 1836 OOO___________ jtwc_wp WP031997 12.3000 156.500 35 0 14.1000 155.000 2 1008 0 0 0 14.1000 155.000 0 19 1008 22 321
1997108N05168 1997 26 WP MM JIMMY 1997-04-22 15:00:00 TS 13.4951 155.433 main 1881 1881 PPP___________ WP031997 12.7576 156.015 35 0 14.2325 154.850 2 1007 0 0 14.2325 154.850 0 19 1007 14 316
1997108N05168 1997 26 WP MM JIMMY 1997-04-22 18:00:00 TS 13.8818 155.027 1006 tokyo main 1914 1914 OOOO__________ jtwc_wp WP031997 13.2000 155.500 35 0 14.4000 154.700 2 1006 0 0 0 14.4000 154.700 0 19 1006 13.5000 155.100 TD 30 1002 10 318
1997108N05168 1997 26 WP MM JIMMY 1997-04-22 21:00:00 TS 14.2439 154.740 main 1939 1939 PPPP__________ WP031997 13.6499 155.062 37 0 14.6275 154.550 2 1005 0 0 14.6275 154.550 0 21 1005 13.8975 154.855 TD 30 1002 8 324
1997108N05168 1997 26 WP MM JIMMY 1997-04-23 00:00:00 TS 14.5667 154.520 1004 tokyo main 1978 1978 OOOO__________ jtwc_wp WP031997 14.1000 154.700 40 0 14.9000 154.400 2 1004 0 0 0 14.9000 154.400 1 23 1004 14.3000 154.600 TD 30 1002 8 329
1997108N05168 1997 26 WP MM JIMMY 1997-04-23 03:00:00 TS 14.9200 154.317 main 2006 2006 PPPP__________ WP031997 14.5574 154.420 42 0 15.2075 154.257 2 1004 0 0 15.2075 154.257 1 23 1004 14.7075 154.335 TD 30 1002 8 332
1997108N05168 1997 26 WP MM JIMMY 1997-04-23 06:00:00 TS 15.2750 154.125 1004 tokyo main 2047 2047 OOOO__________ jtwc_wp WP031997 15.0000 154.200 45 0 15.5000 154.100 2 1004 0 0 0 15.5000 154.100 1 23 1004 15.1000 154.100 TD 30 1002 8 329
1997108N05168 1997 26 WP MM JIMMY 1997-04-23 09:00:00 TS 15.5663 153.922 main 2076 2076 PPPP__________ WP031997 15.4000 153.977 45 0 15.7075 153.892 2 1003 0 0 15.7075 153.892 1 23 1003 15.4500 153.927 TD 30 1002 7 328
1997108N05168 1997 26 WP MM JIMMY 1997-04-23 12:00:00 TS 15.8500 153.750 1002 tokyo main 2107 2096 OOOO__________ jtwc_wp WP031997 15.8000 153.800 45 0 15.9000 153.700 2 1002 0 0 0 15.9000 153.700 1 23 1002 15.8000 153.800 TD 30 1002 7 334
1997108N05168 1997 26 WP MM JIMMY 1997-04-23 15:00:00 TS 16.1687 153.614 main 2137 2137 PPPP__________ WP031997 16.2425 153.655 47 0 16.1275 153.570 2 1001 0 0 16.1275 153.570 1 26 1001 16.1775 153.663 TD 32 1000 7 344
1997108N05168 1997 26 WP MM JIMMY 1997-04-23 18:00:00 TS 16.5250 153.550 1000 tokyo main 2171 2169 OOOO__________ jtwc_wp WP031997 16.7000 153.600 50 0 16.4000 153.500 2 1000 0 0 0 16.4000 153.500 1 29 1000 16.6000 153.600 TS 35 998 8 356
1997108N05168 1997 26 WP MM JIMMY 1997-04-23 21:00:00 TS 16.9187 153.553 main 2215 2215 PPPP__________ WP031997 17.1500 153.662 52 0 16.7200 153.455 2 998 0 0 16.7200 153.455 1 29 998 17.0849 153.640 TS 35 998 8 7
1997108N05168 1997 26 WP MM JIMMY 1997-04-24 00:00:00 TS 17.3500 153.650 35 996 tokyo main 2272 2270 OOOO__________ jtwc_wp WP031997 17.6000 153.800 55 0 17.1000 153.500 3 35 996 0 9 40 40 0 17.1000 153.500 1 29 996 17.6000 153.800 TS 35 998 9 16
1997108N05168 1997 26 WP MM JIMMY 1997-04-24 03:00:00 TS 17.8068 153.818 main 2318 2318 PPPP__________ WP031997 18.0725 153.935 55 0 17.5350 153.648 3 35 996 0 9 50 50 17.5350 153.648 1 29 996 18.0849 154.040 TS 35 998 10 24
1997108N05168 1997 26 WP MM JIMMY 1997-04-24 06:00:00 TS 18.2750 154.075 35 996 tokyo main 2320 2294 OOOO__________ jtwc_wp WP031997 18.5000 154.100 55 0 18.0000 153.900 3 35 996 0 9 60 60 0 18.0000 153.900 1 29 996 18.6000 154.400 TS 35 998 11 31
1997108N05168 1997 26 WP MM JIMMY 1997-04-24 09:00:00 TS 18.7344 154.404 main 2300 2278 PPPP__________ WP031997 18.8375 154.300 55 0 18.4424 154.213 3 35 996 0 9 60 60 18.4424 154.213 1 29 996 19.2152 154.892 TS 35 998 11 36
1997108N05168 1997 26 WP MM JIMMY 1997-04-24 12:00:00 TS 19.1750 154.775 35 996 tokyo main 2278 2260 OOOO__________ jtwc_wp WP031997 19.1000 154.500 55 0 18.9000 154.600 3 35 996 0 9 60 60 0 18.9000 154.600 1 29 996 19.8000 155.400 TS 35 998 12 39
1997108N05168 1997 26 WP MM JIMMY 1997-04-24 15:00:00 TS 19.6314 155.183 main 2266 2250 PPPP__________ WP031997 19.3149 154.650 55 0 19.4528 155.102 3 35 996 0 9 60 60 19.4528 155.102 1 29 996 20.3049 155.878 TS 35 998 10 40
1997108N05168 1997 26 WP MM JIMMY 1997-04-24 18:00:00 TS 19.9750 155.475 35 996 tokyo main 2250 2241 OOOO__________ jtwc_wp WP031997 19.5000 154.800 55 0 19.9000 155.500 3 35 996 0 9 60 60 0 19.9000 155.500 1 29 996 20.6000 156.100 TS 35 998 6 30
1997108N05168 1997 26 WP MM JIMMY 1997-04-24 21:00:00 TS 20.1156 155.483 main 2241 2234 PPPP__________ WP031997 19.6999 154.978 52 0 20.0898 155.591 3 35 996 0 9 60 60 20.0898 155.591 1 29 996 20.5829 155.772 TS 35 998 2 337
1997108N05168 1997 26 WP MM JIMMY 1997-04-25 00:00:00 TS 20.1250 155.400 35 996 tokyo main 2234 2234 OOOO__________ jtwc_wp WP031997 19.9000 155.200 50 0 20.1000 155.500 3 35 996 0 9 60 60 0 20.1000 155.500 1 29 996 20.4000 155.400 TS 35 998 1 241
1997108N05168 1997 26 WP MM JIMMY 1997-04-25 03:00:00 TS 20.0725 155.398 main 2234 2234 PPPP__________ WP031997 20.1075 155.478 47 0 19.9925 155.312 3 35 995 0 9 60 60 19.9925 155.312 1 29 995 20.1973 155.488 TS 32 999 1 134
1997108N05168 1997 26 WP MM JIMMY 1997-04-25 06:00:00 TS 20.0467 155.480 35 994 tokyo main 2250 2241 OOOO__________ jtwc_wp WP031997 20.3000 155.800 45 0 19.9000 155.200 3 35 994 0 9 60 60 0 19.9000 155.200 1 29 995 20.1000 155.800 TD 30 1000 3 72
1997108N05168 1997 26 WP MM JIMMY 1997-04-25 09:00:00 TS 20.1719 155.719 main 2245 2245 PPPP__________ WP031997 20.4575 156.143 40 0 20.0051 155.390 3 35 994 0 9 60 60 20.0051 155.390 1 29 995 20.2677 156.187 TD 30 1000 6 59
1997108N05168 1997 26 WP MM JIMMY 1997-04-25 12:00:00 TS 20.3538 156.015 35 994 tokyo main 2247 2247 OOOO__________ jtwc_wp WP031997 20.6000 156.500 35 0 20.2000 155.700 3 35 994 0 9 60 60 0 20.2000 155.700 1 29 995 20.6000 156.600 TD 30 1000 6 56
1997108N05168 1997 26 WP MM JIMMY 1997-04-25 15:00:00 TS 20.5016 156.245 main 2252 2248 PPP___________ WP031997 20.7350 156.865 32 -1 20.3849 155.935 3 35 995 0 9 60 60 20.3849 155.935 1 29 995 TD 5 53
1997108N05168 1997 26 WP MM JIMMY 1997-04-25 18:00:00 TS 20.6818 156.473 35 996 tokyo main 2255 2252 OOO___________ jtwc_wp WP031997 20.9000 157.200 30 -1 20.6000 156.200 3 35 996 0 9 60 60 0 20.6000 156.200 1 29 995 6 47
1997108N05168 1997 26 WP MM JIMMY 1997-04-25 21:00:00 TS 20.8938 156.692 main 2252 2249 PPP___________ WP031997 21.1300 157.470 27 -1 20.8347 156.498 3 35 997 0 9 60 60 20.8347 156.498 1 29 996 7 47
1997108N05168 1997 26 WP MM JIMMY 1997-04-26 00:00:00 TS 21.1333 156.989 35 998 tokyo main 2256 2248 OOO___________ jtwc_wp WP031997 21.4000 157.700 25 -1 21.1000 156.900 3 35 998 0 9 60 60 0 21.1000 156.900 1 29 998 8 56
1997108N05168 1997 26 WP MM JIMMY 1997-04-26 03:00:00 TS 21.3699 157.440 main 2259 2259 _PP___________ WP031997 -1 21.3699 157.440 3 1000 0 9 21.3699 157.440 1 26 1000 12 61
1997108N05168 1997 26 WP MM JIMMY 1997-04-26 06:00:00 TS 21.7000 158.100 1002 tokyo main 2284 2283 _OO___________ -1 21.7000 158.100 2 1002 0 0 0 21.7000 158.100 1 23 1002 15 60
1997108N05168 1997 26 WP MM JIMMY 1997-04-26 09:00:00 TS 22.1047 158.813 main 2302 2301 _PP___________ -1 22.1047 158.813 2 1003 0 0 22.1047 158.813 1 23 1003 17 57
1997108N05168 1997 26 WP MM JIMMY 1997-04-26 12:00:00 TS 22.6000 159.600 1004 tokyo main 2322 2321 _OO___________ -1 22.6000 159.600 2 1004 0 0 0 22.6000 159.600 1 23 1004 18 54
1997108N05168 1997 26 WP MM JIMMY 1997-04-26 15:00:00 TS 23.1784 160.436 main 2337 2337 _PP___________ -1 23.1784 160.436 2 1006 0 0 23.1784 160.436 1 21 1006 20 52
1997108N05168 1997 26 WP MM JIMMY 1997-04-26 18:00:00 MX 23.8000 161.300 1008 tokyo main 2365 _OO___________ -1 23.8000 161.300 6 1008 0 0 0 23.8000 161.300 0 19 1008 20 52

Digital Typhoon Data and Search

About IBTrACS Database

This database is a web-friendly format of International Best Track Archive for Climate Stewardship (IBTrACS), a global best track data archive curated by NOAA dating back to 1842.

Updated: 2021-11-26